sensor_id;sensor_type;location;lat;lon;timestamp;P1;durP1;ratioP1;P2;durP2;ratioP2
37309;SDS011;23195;47.744;7.358;2023-10-19T00:00:02;18.90;;;13.50;;
37309;SDS011;23195;47.744;7.358;2023-10-19T00:02:53;19.57;;;13.37;;
37309;SDS011;23195;47.744;7.358;2023-10-19T00:05:20;19.80;;;14.30;;
37309;SDS011;23195;47.744;7.358;2023-10-19T00:07:46;19.20;;;13.87;;
37309;SDS011;23195;47.744;7.358;2023-10-19T00:10:18;18.90;;;13.10;;
37309;SDS011;23195;47.744;7.358;2023-10-19T00:12:57;20.83;;;13.87;;
37309;SDS011;23195;47.744;7.358;2023-10-19T00:15:30;22.63;;;15.07;;
37309;SDS011;23195;47.744;7.358;2023-10-19T00:18:08;22.20;;;14.33;;
37309;SDS011;23195;47.744;7.358;2023-10-19T00:20:43;18.77;;;14.73;;
37309;SDS011;23195;47.744;7.358;2023-10-19T00:23:53;21.23;;;14.83;;
37309;SDS011;23195;47.744;7.358;2023-10-19T00:26:33;19.37;;;13.77;;
37309;SDS011;23195;47.744;7.358;2023-10-19T00:29:01;22.27;;;15.17;;
37309;SDS011;23195;47.744;7.358;2023-10-19T00:31:48;19.57;;;14.90;;
37309;SDS011;23195;47.744;7.358;2023-10-19T00:34:14;21.80;;;14.97;;
37309;SDS011;23195;47.744;7.358;2023-10-19T00:36:40;23.03;;;15.37;;
37309;SDS011;23195;47.744;7.358;2023-10-19T00:39:09;26.13;;;15.47;;
37309;SDS011;23195;47.744;7.358;2023-10-19T00:41:46;21.43;;;15.43;;
37309;SDS011;23195;47.744;7.358;2023-10-19T00:44:17;26.97;;;15.27;;
37309;SDS011;23195;47.744;7.358;2023-10-19T00:47:07;24.53;;;15.70;;
37309;SDS011;23195;47.744;7.358;2023-10-19T00:49:53;22.17;;;15.57;;
37309;SDS011;23195;47.744;7.358;2023-10-19T00:52:30;22.23;;;14.93;;
37309;SDS011;23195;47.744;7.358;2023-10-19T00:55:11;21.83;;;14.57;;
37309;SDS011;23195;47.744;7.358;2023-10-19T00:57:55;21.90;;;14.40;;
37309;SDS011;23195;47.744;7.358;2023-10-19T01:00:22;21.83;;;13.20;;
37309;SDS011;23195;47.744;7.358;2023-10-19T01:02:59;18.90;;;13.30;;
37309;SDS011;23195;47.744;7.358;2023-10-19T01:05:30;17.07;;;12.53;;
37309;SDS011;23195;47.744;7.358;2023-10-19T01:11:21;17.33;;;12.20;;
37309;SDS011;23195;47.744;7.358;2023-10-19T01:14:34;16.13;;;11.80;;
37309;SDS011;23195;47.744;7.358;2023-10-19T01:17:19;17.67;;;11.63;;
37309;SDS011;23195;47.744;7.358;2023-10-19T01:19:47;18.80;;;11.33;;
37309;SDS011;23195;47.744;7.358;2023-10-19T01:22:16;17.47;;;11.80;;
37309;SDS011;23195;47.744;7.358;2023-10-19T01:24:42;19.30;;;11.27;;
37309;SDS011;23195;47.744;7.358;2023-10-19T01:27:22;16.67;;;11.60;;
37309;SDS011;23195;47.744;7.358;2023-10-19T01:29:48;17.57;;;12.10;;
37309;SDS011;23195;47.744;7.358;2023-10-19T01:32:20;18.70;;;12.77;;
37309;SDS011;23195;47.744;7.358;2023-10-19T01:37:46;19.50;;;12.90;;
37309;SDS011;23195;47.744;7.358;2023-10-19T01:40:37;25.30;;;13.50;;
37309;SDS011;23195;47.744;7.358;2023-10-19T01:43:11;18.43;;;13.63;;
37309;SDS011;23195;47.744;7.358;2023-10-19T01:45:53;20.97;;;13.97;;
37309;SDS011;23195;47.744;7.358;2023-10-19T01:48:42;21.60;;;14.47;;
37309;SDS011;23195;47.744;7.358;2023-10-19T01:51:11;19.77;;;14.03;;
37309;SDS011;23195;47.744;7.358;2023-10-19T01:53:40;25.03;;;14.43;;
37309;SDS011;23195;47.744;7.358;2023-10-19T01:56:10;22.50;;;14.60;;
37309;SDS011;23195;47.744;7.358;2023-10-19T01:58:42;17.87;;;13.43;;
37309;SDS011;23195;47.744;7.358;2023-10-19T02:01:14;18.73;;;13.47;;
37309;SDS011;23195;47.744;7.358;2023-10-19T02:03:53;19.23;;;14.03;;
37309;SDS011;23195;47.744;7.358;2023-10-19T02:06:35;19.37;;;14.20;;
37309;SDS011;23195;47.744;7.358;2023-10-19T02:12:02;23.80;;;14.90;;
37309;SDS011;23195;47.744;7.358;2023-10-19T02:14:48;20.70;;;14.43;;
37309;SDS011;23195;47.744;7.358;2023-10-19T02:17:21;23.53;;;15.13;;
37309;SDS011;23195;47.744;7.358;2023-10-19T02:19:48;21.87;;;15.03;;
37309;SDS011;23195;47.744;7.358;2023-10-19T02:22:25;22.73;;;15.40;;
37309;SDS011;23195;47.744;7.358;2023-10-19T02:24:53;23.47;;;14.77;;
37309;SDS011;23195;47.744;7.358;2023-10-19T02:27:40;25.60;;;15.30;;
37309;SDS011;23195;47.744;7.358;2023-10-19T02:30:16;24.07;;;14.93;;
37309;SDS011;23195;47.744;7.358;2023-10-19T02:32:57;22.27;;;14.60;;
37309;SDS011;23195;47.744;7.358;2023-10-19T02:35:34;19.77;;;14.73;;
37309;SDS011;23195;47.744;7.358;2023-10-19T02:38:02;21.97;;;14.97;;
37309;SDS011;23195;47.744;7.358;2023-10-19T02:40:29;24.43;;;14.73;;
37309;SDS011;23195;47.744;7.358;2023-10-19T02:42:59;20.53;;;14.80;;
37309;SDS011;23195;47.744;7.358;2023-10-19T02:45:28;25.87;;;15.20;;
37309;SDS011;23195;47.744;7.358;2023-10-19T02:47:59;22.43;;;14.90;;
37309;SDS011;23195;47.744;7.358;2023-10-19T02:50:24;19.57;;;14.43;;
37309;SDS011;23195;47.744;7.358;2023-10-19T02:52:53;23.60;;;14.27;;
37309;SDS011;23195;47.744;7.358;2023-10-19T02:55:22;19.00;;;14.20;;
37309;SDS011;23195;47.744;7.358;2023-10-19T02:58:01;20.60;;;14.40;;
37309;SDS011;23195;47.744;7.358;2023-10-19T03:00:27;21.10;;;14.37;;
37309;SDS011;23195;47.744;7.358;2023-10-19T03:02:59;20.07;;;14.13;;
37309;SDS011;23195;47.744;7.358;2023-10-19T03:05:25;20.63;;;14.50;;
37309;SDS011;23195;47.744;7.358;2023-10-19T03:07:52;19.37;;;14.10;;
37309;SDS011;23195;47.744;7.358;2023-10-19T03:10:18;18.40;;;13.77;;
37309;SDS011;23195;47.744;7.358;2023-10-19T03:13:05;20.07;;;14.17;;
37309;SDS011;23195;47.744;7.358;2023-10-19T03:15:34;24.90;;;14.33;;
37309;SDS011;23195;47.744;7.358;2023-10-19T03:18:00;21.60;;;14.50;;
37309;SDS011;23195;47.744;7.358;2023-10-19T03:20:29;20.13;;;14.20;;
37309;SDS011;23195;47.744;7.358;2023-10-19T03:23:01;20.90;;;13.83;;
37309;SDS011;23195;47.744;7.358;2023-10-19T03:25:30;18.93;;;13.80;;
37309;SDS011;23195;47.744;7.358;2023-10-19T03:28:34;21.27;;;14.00;;
37309;SDS011;23195;47.744;7.358;2023-10-19T03:31:02;19.50;;;14.30;;
37309;SDS011;23195;47.744;7.358;2023-10-19T03:33:29;20.43;;;14.30;;
37309;SDS011;23195;47.744;7.358;2023-10-19T03:35:56;18.10;;;13.87;;
37309;SDS011;23195;47.744;7.358;2023-10-19T03:38:21;20.03;;;13.97;;
37309;SDS011;23195;47.744;7.358;2023-10-19T03:40:50;20.80;;;13.87;;
37309;SDS011;23195;47.744;7.358;2023-10-19T03:43:32;21.90;;;15.27;;
37309;SDS011;23195;47.744;7.358;2023-10-19T03:46:07;20.10;;;14.27;;
37309;SDS011;23195;47.744;7.358;2023-10-19T03:49:05;19.37;;;13.97;;
37309;SDS011;23195;47.744;7.358;2023-10-19T03:51:40;19.60;;;14.00;;
37309;SDS011;23195;47.744;7.358;2023-10-19T03:54:27;20.43;;;14.03;;
37309;SDS011;23195;47.744;7.358;2023-10-19T03:57:11;21.63;;;14.20;;
37309;SDS011;23195;47.744;7.358;2023-10-19T03:59:55;20.33;;;13.90;;
37309;SDS011;23195;47.744;7.358;2023-10-19T04:02:25;20.03;;;13.80;;
37309;SDS011;23195;47.744;7.358;2023-10-19T04:05:03;20.83;;;13.20;;
37309;SDS011;23195;47.744;7.358;2023-10-19T04:07:35;19.10;;;14.33;;
37309;SDS011;23195;47.744;7.358;2023-10-19T04:10:06;19.23;;;14.20;;
37309;SDS011;23195;47.744;7.358;2023-10-19T04:12:54;19.67;;;14.37;;
37309;SDS011;23195;47.744;7.358;2023-10-19T04:15:28;22.77;;;15.13;;
37309;SDS011;23195;47.744;7.358;2023-10-19T04:17:57;20.00;;;14.70;;
37309;SDS011;23195;47.744;7.358;2023-10-19T04:20:41;20.90;;;13.87;;
37309;SDS011;23195;47.744;7.358;2023-10-19T04:23:23;20.70;;;14.47;;
37309;SDS011;23195;47.744;7.358;2023-10-19T04:25:58;18.93;;;14.07;;
37309;SDS011;23195;47.744;7.358;2023-10-19T04:28:46;19.37;;;14.70;;
37309;SDS011;23195;47.744;7.358;2023-10-19T04:31:18;25.63;;;16.63;;
37309;SDS011;23195;47.744;7.358;2023-10-19T04:33:54;24.33;;;16.17;;
37309;SDS011;23195;47.744;7.358;2023-10-19T04:36:23;25.47;;;15.80;;
37309;SDS011;23195;47.744;7.358;2023-10-19T04:38:49;26.23;;;15.60;;
37309;SDS011;23195;47.744;7.358;2023-10-19T04:41:40;22.63;;;14.43;;
37309;SDS011;23195;47.744;7.358;2023-10-19T04:44:14;20.13;;;14.00;;
37309;SDS011;23195;47.744;7.358;2023-10-19T04:46:55;22.77;;;14.07;;
37309;SDS011;23195;47.744;7.358;2023-10-19T04:49:31;21.30;;;14.47;;
37309;SDS011;23195;47.744;7.358;2023-10-19T04:55:07;22.23;;;16.00;;
37309;SDS011;23195;47.744;7.358;2023-10-19T04:57:46;22.97;;;15.03;;
37309;SDS011;23195;47.744;7.358;2023-10-19T05:00:29;21.50;;;15.93;;
37309;SDS011;23195;47.744;7.358;2023-10-19T05:03:04;20.07;;;14.87;;
37309;SDS011;23195;47.744;7.358;2023-10-19T05:05:55;24.10;;;14.93;;
37309;SDS011;23195;47.744;7.358;2023-10-19T05:08:25;26.43;;;15.90;;
37309;SDS011;23195;47.744;7.358;2023-10-19T05:10:54;19.97;;;15.13;;
37309;SDS011;23195;47.744;7.358;2023-10-19T05:13:38;22.43;;;15.90;;
37309;SDS011;23195;47.744;7.358;2023-10-19T05:16:12;23.80;;;16.03;;
37309;SDS011;23195;47.744;7.358;2023-10-19T05:18:38;23.93;;;14.90;;
37309;SDS011;23195;47.744;7.358;2023-10-19T05:21:04;25.40;;;15.60;;
37309;SDS011;23195;47.744;7.358;2023-10-19T05:23:30;22.80;;;15.87;;
37309;SDS011;23195;47.744;7.358;2023-10-19T05:26:00;23.23;;;16.43;;
37309;SDS011;23195;47.744;7.358;2023-10-19T05:28:27;23.23;;;16.67;;
37309;SDS011;23195;47.744;7.358;2023-10-19T05:30:56;23.07;;;15.27;;
37309;SDS011;23195;47.744;7.358;2023-10-19T05:33:27;21.17;;;14.70;;
37309;SDS011;23195;47.744;7.358;2023-10-19T05:35:59;19.63;;;14.83;;
37309;SDS011;23195;47.744;7.358;2023-10-19T05:38:26;23.87;;;15.80;;
37309;SDS011;23195;47.744;7.358;2023-10-19T05:40:52;20.93;;;15.00;;
37309;SDS011;23195;47.744;7.358;2023-10-19T05:43:24;24.27;;;15.47;;
37309;SDS011;23195;47.744;7.358;2023-10-19T05:46:01;19.63;;;14.77;;
37309;SDS011;23195;47.744;7.358;2023-10-19T05:48:27;22.07;;;15.43;;
37309;SDS011;23195;47.744;7.358;2023-10-19T05:51:13;20.07;;;14.73;;
37309;SDS011;23195;47.744;7.358;2023-10-19T05:53:39;22.60;;;14.87;;
37309;SDS011;23195;47.744;7.358;2023-10-19T05:56:06;22.27;;;14.97;;
37309;SDS011;23195;47.744;7.358;2023-10-19T05:58:32;23.50;;;16.07;;
37309;SDS011;23195;47.744;7.358;2023-10-19T06:01:01;20.20;;;15.10;;
37309;SDS011;23195;47.744;7.358;2023-10-19T06:03:27;30.60;;;16.00;;
37309;SDS011;23195;47.744;7.358;2023-10-19T06:05:53;19.37;;;14.20;;
37309;SDS011;23195;47.744;7.358;2023-10-19T06:08:21;18.97;;;14.47;;
37309;SDS011;23195;47.744;7.358;2023-10-19T06:11:03;22.03;;;14.27;;
37309;SDS011;23195;47.744;7.358;2023-10-19T06:13:29;19.70;;;14.30;;
37309;SDS011;23195;47.744;7.358;2023-10-19T06:15:56;21.90;;;14.73;;
37309;SDS011;23195;47.744;7.358;2023-10-19T06:18:24;24.53;;;15.97;;
37309;SDS011;23195;47.744;7.358;2023-10-19T06:20:50;26.17;;;15.10;;
37309;SDS011;23195;47.744;7.358;2023-10-19T06:23:16;20.90;;;14.63;;
37309;SDS011;23195;47.744;7.358;2023-10-19T06:25:43;20.60;;;13.90;;
37309;SDS011;23195;47.744;7.358;2023-10-19T06:28:09;22.37;;;14.43;;
37309;SDS011;23195;47.744;7.358;2023-10-19T06:30:36;20.00;;;13.93;;
37309;SDS011;23195;47.744;7.358;2023-10-19T06:33:02;21.27;;;14.23;;
37309;SDS011;23195;47.744;7.358;2023-10-19T06:35:29;18.67;;;13.23;;
37309;SDS011;23195;47.744;7.358;2023-10-19T06:37:59;18.93;;;12.43;;
37309;SDS011;23195;47.744;7.358;2023-10-19T06:40:26;16.10;;;11.43;;
37309;SDS011;23195;47.744;7.358;2023-10-19T06:42:56;16.40;;;11.30;;
37309;SDS011;23195;47.744;7.358;2023-10-19T06:45:24;16.77;;;11.73;;
37309;SDS011;23195;47.744;7.358;2023-10-19T06:47:51;16.77;;;11.13;;
37309;SDS011;23195;47.744;7.358;2023-10-19T06:50:21;13.47;;;10.30;;
37309;SDS011;23195;47.744;7.358;2023-10-19T06:52:48;13.53;;;10.30;;
37309;SDS011;23195;47.744;7.358;2023-10-19T06:55:15;15.90;;;9.97;;
37309;SDS011;23195;47.744;7.358;2023-10-19T06:57:46;16.57;;;10.20;;
37309;SDS011;23195;47.744;7.358;2023-10-19T07:00:17;13.93;;;10.30;;
37309;SDS011;23195;47.744;7.358;2023-10-19T07:02:51;13.23;;;10.20;;
37309;SDS011;23195;47.744;7.358;2023-10-19T07:05:18;18.47;;;9.87;;
37309;SDS011;23195;47.744;7.358;2023-10-19T07:07:49;15.23;;;9.33;;
37309;SDS011;23195;47.744;7.358;2023-10-19T07:10:17;13.47;;;9.00;;
37309;SDS011;23195;47.744;7.358;2023-10-19T07:12:45;12.30;;;8.70;;
37309;SDS011;23195;47.744;7.358;2023-10-19T07:15:12;13.37;;;8.90;;
37309;SDS011;23195;47.744;7.358;2023-10-19T07:17:44;10.70;;;8.40;;
37309;SDS011;23195;47.744;7.358;2023-10-19T07:20:13;9.83;;;8.33;;
37309;SDS011;23195;47.744;7.358;2023-10-19T07:23:01;10.93;;;9.07;;
37309;SDS011;23195;47.744;7.358;2023-10-19T07:25:33;18.70;;;10.30;;
37309;SDS011;23195;47.744;7.358;2023-10-19T07:28:09;13.27;;;9.73;;
37309;SDS011;23195;47.744;7.358;2023-10-19T07:30:35;17.90;;;11.77;;
37309;SDS011;23195;47.744;7.358;2023-10-19T07:33:02;13.90;;;10.03;;
37309;SDS011;23195;47.744;7.358;2023-10-19T07:35:29;15.43;;;10.57;;
37309;SDS011;23195;47.744;7.358;2023-10-19T07:38:02;14.30;;;10.07;;
37309;SDS011;23195;47.744;7.358;2023-10-19T07:40:29;19.87;;;10.37;;
37309;SDS011;23195;47.744;7.358;2023-10-19T07:42:55;17.10;;;10.80;;
37309;SDS011;23195;47.744;7.358;2023-10-19T07:45:21;16.47;;;11.07;;
37309;SDS011;23195;47.744;7.358;2023-10-19T07:47:50;19.67;;;10.10;;
37309;SDS011;23195;47.744;7.358;2023-10-19T07:50:17;16.37;;;11.67;;
37309;SDS011;23195;47.744;7.358;2023-10-19T07:52:47;16.87;;;11.10;;
37309;SDS011;23195;47.744;7.358;2023-10-19T07:55:15;17.80;;;12.03;;
37309;SDS011;23195;47.744;7.358;2023-10-19T07:57:47;15.60;;;11.17;;
37309;SDS011;23195;47.744;7.358;2023-10-19T08:00:15;20.83;;;13.03;;
37309;SDS011;23195;47.744;7.358;2023-10-19T08:02:45;16.33;;;12.73;;
37309;SDS011;23195;47.744;7.358;2023-10-19T08:05:14;18.53;;;13.20;;
37309;SDS011;23195;47.744;7.358;2023-10-19T08:07:40;18.63;;;12.87;;
37309;SDS011;23195;47.744;7.358;2023-10-19T08:10:13;18.33;;;13.93;;
37309;SDS011;23195;47.744;7.358;2023-10-19T08:12:43;19.67;;;13.83;;
37309;SDS011;23195;47.744;7.358;2023-10-19T08:15:13;24.33;;;15.23;;
37309;SDS011;23195;47.744;7.358;2023-10-19T08:17:43;20.37;;;14.03;;
37309;SDS011;23195;47.744;7.358;2023-10-19T08:20:12;20.67;;;13.93;;
37309;SDS011;23195;47.744;7.358;2023-10-19T08:22:42;19.63;;;14.43;;
37309;SDS011;23195;47.744;7.358;2023-10-19T08:25:11;23.07;;;15.30;;
37309;SDS011;23195;47.744;7.358;2023-10-19T08:27:41;20.90;;;15.33;;
37309;SDS011;23195;47.744;7.358;2023-10-19T08:30:11;20.10;;;13.93;;
37309;SDS011;23195;47.744;7.358;2023-10-19T08:32:40;19.73;;;14.37;;
37309;SDS011;23195;47.744;7.358;2023-10-19T08:35:07;21.13;;;14.67;;
37309;SDS011;23195;47.744;7.358;2023-10-19T08:37:37;23.43;;;15.53;;
37309;SDS011;23195;47.744;7.358;2023-10-19T08:40:05;21.20;;;14.10;;
37309;SDS011;23195;47.744;7.358;2023-10-19T08:42:32;20.67;;;14.67;;
37309;SDS011;23195;47.744;7.358;2023-10-19T08:44:59;23.70;;;15.00;;
37309;SDS011;23195;47.744;7.358;2023-10-19T08:47:25;23.77;;;16.30;;
37309;SDS011;23195;47.744;7.358;2023-10-19T08:49:54;23.77;;;15.90;;
37309;SDS011;23195;47.744;7.358;2023-10-19T08:52:20;24.80;;;15.70;;
37309;SDS011;23195;47.744;7.358;2023-10-19T08:54:51;23.00;;;15.67;;
37309;SDS011;23195;47.744;7.358;2023-10-19T08:57:17;22.60;;;16.00;;
37309;SDS011;23195;47.744;7.358;2023-10-19T08:59:47;25.67;;;17.13;;
37309;SDS011;23195;47.744;7.358;2023-10-19T09:02:13;27.90;;;17.60;;
37309;SDS011;23195;47.744;7.358;2023-10-19T09:04:43;25.67;;;17.73;;
37309;SDS011;23195;47.744;7.358;2023-10-19T09:07:09;27.10;;;18.23;;
37309;SDS011;23195;47.744;7.358;2023-10-19T09:09:36;29.97;;;18.10;;
37309;SDS011;23195;47.744;7.358;2023-10-19T09:12:08;26.23;;;17.30;;
37309;SDS011;23195;47.744;7.358;2023-10-19T09:14:36;23.67;;;16.80;;
37309;SDS011;23195;47.744;7.358;2023-10-19T09:17:06;25.43;;;18.27;;
37309;SDS011;23195;47.744;7.358;2023-10-19T09:22:08;23.37;;;15.97;;
37309;SDS011;23195;47.744;7.358;2023-10-19T09:24:44;25.27;;;15.80;;
37309;SDS011;23195;47.744;7.358;2023-10-19T09:27:11;23.07;;;17.73;;
37309;SDS011;23195;47.744;7.358;2023-10-19T09:29:38;23.70;;;15.30;;
37309;SDS011;23195;47.744;7.358;2023-10-19T09:32:08;23.97;;;16.77;;
37309;SDS011;23195;47.744;7.358;2023-10-19T09:34:35;24.97;;;15.10;;
37309;SDS011;23195;47.744;7.358;2023-10-19T09:37:02;19.10;;;14.00;;
37309;SDS011;23195;47.744;7.358;2023-10-19T09:39:33;19.10;;;13.70;;
37309;SDS011;23195;47.744;7.358;2023-10-19T09:42:02;17.50;;;12.93;;
37309;SDS011;23195;47.744;7.358;2023-10-19T09:44:42;24.70;;;14.73;;
37309;SDS011;23195;47.744;7.358;2023-10-19T09:47:16;20.10;;;12.70;;
37309;SDS011;23195;47.744;7.358;2023-10-19T09:50:19;20.03;;;13.67;;
37309;SDS011;23195;47.744;7.358;2023-10-19T09:52:54;17.83;;;12.00;;
37309;SDS011;23195;47.744;7.358;2023-10-19T10:01:04;18.37;;;11.53;;
37309;SDS011;23195;47.744;7.358;2023-10-19T10:03:43;15.13;;;10.57;;
37309;SDS011;23195;47.744;7.358;2023-10-19T10:09:19;13.97;;;9.97;;
37309;SDS011;23195;47.744;7.358;2023-10-19T10:11:55;13.47;;;9.20;;
37309;SDS011;23195;47.744;7.358;2023-10-19T10:14:29;11.47;;;8.87;;
37309;SDS011;23195;47.744;7.358;2023-10-19T10:17:03;11.37;;;8.80;;
37309;SDS011;23195;47.744;7.358;2023-10-19T10:19:35;11.70;;;9.33;;
37309;SDS011;23195;47.744;7.358;2023-10-19T10:22:16;12.70;;;9.37;;
37309;SDS011;23195;47.744;7.358;2023-10-19T10:24:55;15.43;;;10.43;;
37309;SDS011;23195;47.744;7.358;2023-10-19T10:27:24;11.97;;;9.30;;
37309;SDS011;23195;47.744;7.358;2023-10-19T10:29:57;14.13;;;10.30;;
37309;SDS011;23195;47.744;7.358;2023-10-19T10:38:12;12.27;;;9.57;;
37309;SDS011;23195;47.744;7.358;2023-10-19T10:40:44;15.70;;;10.23;;
37309;SDS011;23195;47.744;7.358;2023-10-19T10:43:18;16.10;;;11.30;;
37309;SDS011;23195;47.744;7.358;2023-10-19T10:45:46;15.07;;;11.37;;
37309;SDS011;23195;47.744;7.358;2023-10-19T10:48:16;15.27;;;9.77;;
37309;SDS011;23195;47.744;7.358;2023-10-19T10:50:45;16.67;;;10.10;;
37309;SDS011;23195;47.744;7.358;2023-10-19T10:53:14;15.00;;;9.47;;
37309;SDS011;23195;47.744;7.358;2023-10-19T10:55:48;13.47;;;10.40;;
37309;SDS011;23195;47.744;7.358;2023-10-19T10:58:15;15.03;;;10.67;;
37309;SDS011;23195;47.744;7.358;2023-10-19T11:00:42;13.03;;;9.70;;
37309;SDS011;23195;47.744;7.358;2023-10-19T11:03:08;14.03;;;10.10;;
37309;SDS011;23195;47.744;7.358;2023-10-19T11:05:35;13.03;;;9.23;;
37309;SDS011;23195;47.744;7.358;2023-10-19T11:10:30;12.17;;;8.23;;
37309;SDS011;23195;47.744;7.358;2023-10-19T11:13:00;10.17;;;8.17;;
37309;SDS011;23195;47.744;7.358;2023-10-19T11:15:35;13.03;;;9.20;;
37309;SDS011;23195;47.744;7.358;2023-10-19T11:18:02;11.20;;;8.23;;
37309;SDS011;23195;47.744;7.358;2023-10-19T11:20:29;11.70;;;8.47;;
37309;SDS011;23195;47.744;7.358;2023-10-19T11:22:56;10.73;;;8.03;;
37309;SDS011;23195;47.744;7.358;2023-10-19T11:25:31;12.67;;;8.03;;
37309;SDS011;23195;47.744;7.358;2023-10-19T11:28:03;10.50;;;6.93;;
37309;SDS011;23195;47.744;7.358;2023-10-19T11:30:42;7.90;;;6.53;;
37309;SDS011;23195;47.744;7.358;2023-10-19T11:33:08;7.53;;;6.70;;
37309;SDS011;23195;47.744;7.358;2023-10-19T11:38:51;9.93;;;6.67;;
37309;SDS011;23195;47.744;7.358;2023-10-19T11:41:21;11.67;;;7.50;;
37309;SDS011;23195;47.744;7.358;2023-10-19T11:43:48;13.50;;;8.97;;
37309;SDS011;23195;47.744;7.358;2023-10-19T11:46:22;16.00;;;9.03;;
37309;SDS011;23195;47.744;7.358;2023-10-19T11:48:50;14.67;;;8.97;;
37309;SDS011;23195;47.744;7.358;2023-10-19T11:51:19;11.80;;;8.83;;
37309;SDS011;23195;47.744;7.358;2023-10-19T11:53:47;11.07;;;7.47;;
37309;SDS011;23195;47.744;7.358;2023-10-19T11:56:13;12.93;;;7.70;;
37309;SDS011;23195;47.744;7.358;2023-10-19T11:58:41;9.43;;;7.27;;
37309;SDS011;23195;47.744;7.358;2023-10-19T12:01:09;8.77;;;6.93;;
37309;SDS011;23195;47.744;7.358;2023-10-19T12:03:38;9.20;;;6.33;;
37309;SDS011;23195;47.744;7.358;2023-10-19T12:06:08;8.13;;;6.53;;
37309;SDS011;23195;47.744;7.358;2023-10-19T12:08:35;8.50;;;6.13;;
37309;SDS011;23195;47.744;7.358;2023-10-19T12:11:02;8.60;;;6.20;;
37309;SDS011;23195;47.744;7.358;2023-10-19T12:13:29;7.07;;;6.37;;
37309;SDS011;23195;47.744;7.358;2023-10-19T12:15:56;8.30;;;7.10;;
37309;SDS011;23195;47.744;7.358;2023-10-19T12:18:23;8.50;;;7.17;;
37309;SDS011;23195;47.744;7.358;2023-10-19T12:20:58;8.97;;;7.00;;
37309;SDS011;23195;47.744;7.358;2023-10-19T12:23:27;9.90;;;7.80;;
37309;SDS011;23195;47.744;7.358;2023-10-19T12:25:58;7.57;;;6.73;;
37309;SDS011;23195;47.744;7.358;2023-10-19T12:28:32;8.20;;;6.90;;
37309;SDS011;23195;47.744;7.358;2023-10-19T12:30:58;9.43;;;7.13;;
37309;SDS011;23195;47.744;7.358;2023-10-19T12:33:24;10.87;;;8.17;;
37309;SDS011;23195;47.744;7.358;2023-10-19T12:35:51;9.23;;;7.23;;
37309;SDS011;23195;47.744;7.358;2023-10-19T12:38:18;8.50;;;7.00;;
37309;SDS011;23195;47.744;7.358;2023-10-19T12:40:48;8.93;;;6.20;;
37309;SDS011;23195;47.744;7.358;2023-10-19T12:43:16;11.20;;;7.40;;
37309;SDS011;23195;47.744;7.358;2023-10-19T12:45:44;9.37;;;7.17;;
37309;SDS011;23195;47.744;7.358;2023-10-19T12:48:16;10.77;;;7.47;;
37309;SDS011;23195;47.744;7.358;2023-10-19T12:50:44;9.43;;;7.40;;
37309;SDS011;23195;47.744;7.358;2023-10-19T12:53:10;8.87;;;7.37;;
37309;SDS011;23195;47.744;7.358;2023-10-19T12:55:36;9.53;;;6.60;;
37309;SDS011;23195;47.744;7.358;2023-10-19T12:58:03;6.77;;;6.00;;
37309;SDS011;23195;47.744;7.358;2023-10-19T13:00:33;8.37;;;6.43;;
37309;SDS011;23195;47.744;7.358;2023-10-19T13:03:06;8.67;;;6.23;;
37309;SDS011;23195;47.744;7.358;2023-10-19T13:05:33;7.10;;;5.83;;
37309;SDS011;23195;47.744;7.358;2023-10-19T13:08:02;6.37;;;5.70;;
37309;SDS011;23195;47.744;7.358;2023-10-19T13:10:42;7.93;;;5.80;;
37309;SDS011;23195;47.744;7.358;2023-10-19T13:13:12;6.17;;;5.57;;
37309;SDS011;23195;47.744;7.358;2023-10-19T13:15:43;8.47;;;6.13;;
37309;SDS011;23195;47.744;7.358;2023-10-19T13:18:10;8.83;;;6.47;;
37309;SDS011;23195;47.744;7.358;2023-10-19T13:20:36;8.70;;;7.80;;
37309;SDS011;23195;47.744;7.358;2023-10-19T13:23:03;10.23;;;7.20;;
37309;SDS011;23195;47.744;7.358;2023-10-19T13:25:32;8.73;;;6.70;;
37309;SDS011;23195;47.744;7.358;2023-10-19T13:28:10;8.63;;;7.00;;
37309;SDS011;23195;47.744;7.358;2023-10-19T13:30:41;10.00;;;8.00;;
37309;SDS011;23195;47.744;7.358;2023-10-19T13:33:09;11.43;;;8.93;;
37309;SDS011;23195;47.744;7.358;2023-10-19T13:35:36;9.70;;;7.87;;
37309;SDS011;23195;47.744;7.358;2023-10-19T13:38:07;13.50;;;8.93;;
37309;SDS011;23195;47.744;7.358;2023-10-19T13:40:34;9.40;;;8.40;;
37309;SDS011;23195;47.744;7.358;2023-10-19T13:43:01;10.70;;;8.20;;
37309;SDS011;23195;47.744;7.358;2023-10-19T13:45:30;10.30;;;8.23;;
37309;SDS011;23195;47.744;7.358;2023-10-19T13:48:02;11.87;;;8.23;;
37309;SDS011;23195;47.744;7.358;2023-10-19T13:50:32;11.43;;;7.77;;
37309;SDS011;23195;47.744;7.358;2023-10-19T13:53:00;10.17;;;9.10;;
37309;SDS011;23195;47.744;7.358;2023-10-19T13:55:30;13.17;;;10.30;;
37309;SDS011;23195;47.744;7.358;2023-10-19T13:57:58;13.93;;;10.23;;
37309;SDS011;23195;47.744;7.358;2023-10-19T14:00:24;14.57;;;10.47;;
37309;SDS011;23195;47.744;7.358;2023-10-19T14:03:11;15.13;;;11.60;;
37309;SDS011;23195;47.744;7.358;2023-10-19T14:05:44;12.90;;;10.50;;
37309;SDS011;23195;47.744;7.358;2023-10-19T14:08:13;17.23;;;11.20;;
37309;SDS011;23195;47.744;7.358;2023-10-19T14:10:40;17.10;;;10.53;;
37309;SDS011;23195;47.744;7.358;2023-10-19T14:13:07;17.17;;;11.20;;
37309;SDS011;23195;47.744;7.358;2023-10-19T14:15:37;14.33;;;11.50;;
37309;SDS011;23195;47.744;7.358;2023-10-19T14:18:03;15.67;;;11.40;;
37309;SDS011;23195;47.744;7.358;2023-10-19T14:20:33;16.03;;;11.53;;
37309;SDS011;23195;47.744;7.358;2023-10-19T14:22:59;15.87;;;11.63;;
37309;SDS011;23195;47.744;7.358;2023-10-19T14:25:26;14.23;;;11.67;;
37309;SDS011;23195;47.744;7.358;2023-10-19T14:27:54;15.87;;;11.70;;
37309;SDS011;23195;47.744;7.358;2023-10-19T14:30:27;14.63;;;10.83;;
37309;SDS011;23195;47.744;7.358;2023-10-19T14:32:53;14.63;;;11.20;;
37309;SDS011;23195;47.744;7.358;2023-10-19T14:35:20;14.73;;;10.60;;
37309;SDS011;23195;47.744;7.358;2023-10-19T14:37:47;12.83;;;10.20;;
37309;SDS011;23195;47.744;7.358;2023-10-19T14:40:15;13.90;;;9.80;;
37309;SDS011;23195;47.744;7.358;2023-10-19T14:42:43;13.50;;;9.77;;
37309;SDS011;23195;47.744;7.358;2023-10-19T14:45:09;13.13;;;10.00;;
37309;SDS011;23195;47.744;7.358;2023-10-19T14:47:46;11.63;;;9.07;;
37309;SDS011;23195;47.744;7.358;2023-10-19T14:50:13;15.40;;;10.67;;
37309;SDS011;23195;47.744;7.358;2023-10-19T14:52:40;14.47;;;10.40;;
37309;SDS011;23195;47.744;7.358;2023-10-19T14:55:10;17.47;;;11.90;;
37309;SDS011;23195;47.744;7.358;2023-10-19T14:57:40;15.43;;;10.73;;
37309;SDS011;23195;47.744;7.358;2023-10-19T15:00:08;17.00;;;11.23;;
37309;SDS011;23195;47.744;7.358;2023-10-19T15:02:47;15.33;;;10.67;;
37309;SDS011;23195;47.744;7.358;2023-10-19T15:05:19;16.60;;;11.67;;
37309;SDS011;23195;47.744;7.358;2023-10-19T15:07:53;19.87;;;12.43;;
37309;SDS011;23195;47.744;7.358;2023-10-19T15:10:25;15.23;;;11.53;;
37309;SDS011;23195;47.744;7.358;2023-10-19T15:12:59;15.53;;;11.30;;
37309;SDS011;23195;47.744;7.358;2023-10-19T15:15:29;16.30;;;12.20;;
37309;SDS011;23195;47.744;7.358;2023-10-19T15:17:55;20.53;;;13.00;;
37309;SDS011;23195;47.744;7.358;2023-10-19T15:20:24;17.53;;;12.63;;
37309;SDS011;23195;47.744;7.358;2023-10-19T15:22:51;16.87;;;12.40;;
37309;SDS011;23195;47.744;7.358;2023-10-19T15:25:18;16.70;;;12.67;;